| Date | Time | Temp. (oF) | Dew Point (oF) | Rel. Hum. (%) | Press. (in.) | Wind Dir. | Wind Speed (mph) | Hourly Rainfall (in.) |
|
|---|---|---|---|---|---|---|---|---|---|
| 1 | miss | miss | miss | miss | miss | miss | miss | miss | |
| 2 | 03/13 | 23:00 | 41 | 37 | 86 | 29.84 | N | 3 | 0.00 |
| 3 | 03/13 | 22:00 | 42 | 37 | 84 | 29.84 | ESE | 2 | 0.00 |
| 4 | 03/13 | 21:00 | 43 | 37 | 80 | 29.84 | SE | 2 | 0.00 |
| 5 | 03/13 | 20:00 | 44 | 35 | 72 | 29.83 | SE | 1 | 0.00 |
| 6 | 03/13 | 19:00 | 49 | 34 | 57 | 29.82 | SSE | 7 | 0.00 |
| 7 | 03/13 | 18:00 | 51 | 32 | 50 | 29.79 | SSE | 4 | 0.00 |
| 8 | 03/13 | 17:00 | 53 | 30 | 42 | 29.77 | S | 8 | 0.00 |
| 9 | 03/13 | 16:00 | 53 | 28 | 39 | 29.78 | SSW | 10 | 0.00 |
| 10 | 03/13 | 15:00 | 53 | 29 | 40 | 29.79 | S | 10 | 0.00 |
| 11 | 03/13 | 14:00 | 51 | 28 | 42 | 29.83 | SSW | 9 | 0.00 |
| 12 | 03/13 | 13:00 | 49 | 29 | 46 | 29.88 | SSE | 13 | 0.00 |
| 13 | 03/13 | 12:00 | 47 | 28 | 48 | 29.93 | ENE | 13 | 0.00 |
| 14 | 03/13 | 11:00 | 44 | 25 | 49 | 29.98 | SW | 6 | 0.00 |
| 15 | 03/13 | 10:00 | 41 | 26 | 55 | 30.02 | SSW | 8 | 0.00 |
| 16 | 03/13 | 09:00 | 40 | 27 | 60 | 30.03 | SSW | 5 | 0.00 |
| 17 | 03/13 | 08:00 | 34 | 28 | 81 | 30.04 | S | 1 | 0.00 |
| 18 | 03/13 | 07:00 | 27 | 25 | 94 | 30.04 | SW | 2 | 0.00 |
| 19 | 03/13 | 06:00 | 26 | 23 | 91 | 30.02 | WSW | 1 | 0.00 |
| 20 | 03/13 | 05:00 | 27 | 24 | 89 | 30.01 | WNW | 1 | 0.00 |
| 21 | 03/13 | 04:00 | 30 | 24 | 80 | 30.00 | WNW | 1 | 0.00 |
| 22 | 03/13 | 03:00 | 29 | 24 | 82 | 29.98 | SSE | 1 | 0.00 |
| 23 | 03/13 | 02:00 | 30 | 24 | 79 | 29.98 | SSE | 1 | 0.00 |
| 24 | 03/13 | 01:00 | 33 | 24 | 70 | 29.98 | NNE | 4 | 0.00 |